sensor_id;sensor_type;location;lat;lon;timestamp;P1;durP1;ratioP1;P2;durP2;ratioP2
54428;SDS011;40337;52.978;6.310;2022-09-12T00:01:47;3.75;;;2.78;;
54428;SDS011;40337;52.978;6.310;2022-09-12T00:04:13;4.90;;;3.63;;
54428;SDS011;40337;52.978;6.310;2022-09-12T00:06:38;4.75;;;2.85;;
54428;SDS011;40337;52.978;6.310;2022-09-12T00:09:09;5.13;;;4.47;;
54428;SDS011;40337;52.978;6.310;2022-09-12T00:11:37;5.28;;;3.58;;
54428;SDS011;40337;52.978;6.310;2022-09-12T00:14:05;5.88;;;3.35;;
54428;SDS011;40337;52.978;6.310;2022-09-12T00:16:32;4.75;;;3.42;;
54428;SDS011;40337;52.978;6.310;2022-09-12T00:18:59;5.28;;;3.00;;
54428;SDS011;40337;52.978;6.310;2022-09-12T00:21:25;3.42;;;2.25;;
54428;SDS011;40337;52.978;6.310;2022-09-12T00:23:51;2.85;;;2.10;;
54428;SDS011;40337;52.978;6.310;2022-09-12T00:26:17;2.72;;;1.80;;
54428;SDS011;40337;52.978;6.310;2022-09-12T00:28:44;2.53;;;1.60;;
54428;SDS011;40337;52.978;6.310;2022-09-12T00:31:14;2.33;;;1.60;;
54428;SDS011;40337;52.978;6.310;2022-09-12T00:33:41;3.58;;;1.80;;
54428;SDS011;40337;52.978;6.310;2022-09-12T00:36:09;4.70;;;1.70;;
54428;SDS011;40337;52.978;6.310;2022-09-12T00:38:38;2.83;;;1.85;;
54428;SDS011;40337;52.978;6.310;2022-09-12T00:41:16;3.95;;;1.98;;
54428;SDS011;40337;52.978;6.310;2022-09-12T00:43:48;4.90;;;1.63;;
54428;SDS011;40337;52.978;6.310;2022-09-12T00:49:10;2.25;;;1.30;;
54428;SDS011;40337;52.978;6.310;2022-09-12T00:51:37;1.98;;;1.00;;
54428;SDS011;40337;52.978;6.310;2022-09-12T00:54:06;2.88;;;1.60;;
54428;SDS011;40337;52.978;6.310;2022-09-12T00:56:34;2.17;;;1.40;;
54428;SDS011;40337;52.978;6.310;2022-09-12T00:59:04;5.38;;;1.50;;
54428;SDS011;40337;52.978;6.310;2022-09-12T01:01:35;5.38;;;1.60;;
54428;SDS011;40337;52.978;6.310;2022-09-12T01:04:02;5.53;;;1.60;;
54428;SDS011;40337;52.978;6.310;2022-09-12T01:06:32;1.30;;;1.00;;
54428;SDS011;40337;52.978;6.310;2022-09-12T01:09:02;5.78;;;1.17;;
54428;SDS011;40337;52.978;6.310;2022-09-12T01:11:29;1.40;;;0.77;;
54428;SDS011;40337;52.978;6.310;2022-09-12T01:13:58;3.03;;;0.80;;
54428;SDS011;40337;52.978;6.310;2022-09-12T01:16:24;2.50;;;1.30;;
54428;SDS011;40337;52.978;6.310;2022-09-12T01:30:46;2.63;;;1.65;;
54428;SDS011;40337;52.978;6.310;2022-09-12T01:39:03;2.72;;;1.70;;
54428;SDS011;40337;52.978;6.310;2022-09-12T01:41:41;4.25;;;2.80;;
54428;SDS011;40337;52.978;6.310;2022-09-12T01:50:09;4.20;;;2.92;;
54428;SDS011;40337;52.978;6.310;2022-09-12T01:52:43;7.03;;;2.95;;
54428;SDS011;40337;52.978;6.310;2022-09-12T01:58:31;4.15;;;2.17;;
54428;SDS011;40337;52.978;6.310;2022-09-12T02:01:05;3.53;;;1.88;;
54428;SDS011;40337;52.978;6.310;2022-09-12T02:03:56;3.13;;;1.80;;
54428;SDS011;40337;52.978;6.310;2022-09-12T02:06:36;2.90;;;2.00;;
54428;SDS011;40337;52.978;6.310;2022-09-12T02:09:16;1.98;;;1.50;;
54428;SDS011;40337;52.978;6.310;2022-09-12T02:11:51;3.85;;;2.50;;
54428;SDS011;40337;52.978;6.310;2022-09-12T02:14:22;4.30;;;2.63;;
54428;SDS011;40337;52.978;6.310;2022-09-12T02:16:55;4.35;;;2.58;;
54428;SDS011;40337;52.978;6.310;2022-09-12T02:19:27;5.40;;;3.50;;
54428;SDS011;40337;52.978;6.310;2022-09-12T02:21:58;6.18;;;2.60;;
54428;SDS011;40337;52.978;6.310;2022-09-12T02:24:30;2.70;;;1.90;;
54428;SDS011;40337;52.978;6.310;2022-09-12T02:27:22;3.47;;;2.00;;
54428;SDS011;40337;52.978;6.310;2022-09-12T02:29:48;3.85;;;2.25;;
54428;SDS011;40337;52.978;6.310;2022-09-12T02:32:17;4.05;;;2.60;;
54428;SDS011;40337;52.978;6.310;2022-09-12T02:37:39;4.80;;;3.28;;
54428;SDS011;40337;52.978;6.310;2022-09-12T02:40:16;6.05;;;4.28;;
54428;SDS011;40337;52.978;6.310;2022-09-12T02:42:42;4.53;;;3.67;;
54428;SDS011;40337;52.978;6.310;2022-09-12T02:45:08;5.90;;;4.07;;
54428;SDS011;40337;52.978;6.310;2022-09-12T02:50:22;9.88;;;8.88;;
54428;SDS011;40337;52.978;6.310;2022-09-12T02:52:47;8.40;;;7.60;;
54428;SDS011;40337;52.978;6.310;2022-09-12T02:55:15;11.13;;;10.00;;
54428;SDS011;40337;52.978;6.310;2022-09-12T02:57:40;12.93;;;11.63;;
54428;SDS011;40337;52.978;6.310;2022-09-12T03:00:07;13.38;;;12.02;;
54428;SDS011;40337;52.978;6.310;2022-09-12T03:08:13;9.25;;;8.38;;
54428;SDS011;40337;52.978;6.310;2022-09-12T03:10:45;11.20;;;10.18;;
54428;SDS011;40337;52.978;6.310;2022-09-12T03:16:13;13.40;;;12.07;;
54428;SDS011;40337;52.978;6.310;2022-09-12T03:27:54;21.27;;;19.15;;
54428;SDS011;40337;52.978;6.310;2022-09-12T03:30:21;23.95;;;21.45;;
54428;SDS011;40337;52.978;6.310;2022-09-12T03:32:48;21.10;;;19.08;;
54428;SDS011;40337;52.978;6.310;2022-09-12T03:35:16;21.88;;;19.63;;
54428;SDS011;40337;52.978;6.310;2022-09-12T03:37:43;21.27;;;19.02;;
54428;SDS011;40337;52.978;6.310;2022-09-12T03:40:10;22.80;;;20.38;;
54428;SDS011;40337;52.978;6.310;2022-09-12T03:42:36;19.63;;;17.63;;
54428;SDS011;40337;52.978;6.310;2022-09-12T03:45:03;25.02;;;22.50;;
54428;SDS011;40337;52.978;6.310;2022-09-12T03:47:30;22.58;;;20.20;;
54428;SDS011;40337;52.978;6.310;2022-09-12T03:49:55;21.75;;;19.48;;
54428;SDS011;40337;52.978;6.310;2022-09-12T03:52:21;22.25;;;20.02;;
54428;SDS011;40337;52.978;6.310;2022-09-12T03:54:47;22.75;;;20.38;;
54428;SDS011;40337;52.978;6.310;2022-09-12T03:57:12;20.20;;;18.25;;
54428;SDS011;40337;52.978;6.310;2022-09-12T03:59:39;20.80;;;18.80;;
54428;SDS011;40337;52.978;6.310;2022-09-12T04:02:04;22.63;;;20.33;;
54428;SDS011;40337;52.978;6.310;2022-09-12T04:04:30;24.55;;;21.95;;
54428;SDS011;40337;52.978;6.310;2022-09-12T04:06:56;23.42;;;21.10;;
54428;SDS011;40337;52.978;6.310;2022-09-12T04:09:21;24.23;;;21.80;;
54428;SDS011;40337;52.978;6.310;2022-09-12T04:11:47;24.20;;;21.67;;
54428;SDS011;40337;52.978;6.310;2022-09-12T04:14:13;27.13;;;23.95;;
54428;SDS011;40337;52.978;6.310;2022-09-12T04:16:38;25.73;;;22.63;;
54428;SDS011;40337;52.978;6.310;2022-09-12T04:19:04;25.17;;;22.48;;
54428;SDS011;40337;52.978;6.310;2022-09-12T04:21:29;23.60;;;21.27;;
54428;SDS011;40337;52.978;6.310;2022-09-12T04:23:56;23.17;;;20.67;;
54428;SDS011;40337;52.978;6.310;2022-09-12T04:26:21;26.23;;;22.15;;
54428;SDS011;40337;52.978;6.310;2022-09-12T04:28:47;23.90;;;21.38;;
54428;SDS011;40337;52.978;6.310;2022-09-12T04:31:18;26.65;;;23.88;;
54428;SDS011;40337;52.978;6.310;2022-09-12T04:33:46;26.23;;;23.42;;
54428;SDS011;40337;52.978;6.310;2022-09-12T04:36:17;27.10;;;24.30;;
54428;SDS011;40337;52.978;6.310;2022-09-12T04:38:43;25.98;;;23.27;;
54428;SDS011;40337;52.978;6.310;2022-09-12T04:41:31;26.70;;;24.00;;
54428;SDS011;40337;52.978;6.310;2022-09-12T04:43:57;26.90;;;24.10;;
54428;SDS011;40337;52.978;6.310;2022-09-12T04:46:29;27.00;;;24.08;;
54428;SDS011;40337;52.978;6.310;2022-09-12T04:48:56;27.55;;;24.65;;
54428;SDS011;40337;52.978;6.310;2022-09-12T04:51:23;28.23;;;25.17;;
54428;SDS011;40337;52.978;6.310;2022-09-12T04:53:52;28.70;;;25.70;;
54428;SDS011;40337;52.978;6.310;2022-09-12T04:56:19;28.02;;;25.00;;
54428;SDS011;40337;52.978;6.310;2022-09-12T04:58:46;29.45;;;25.63;;
54428;SDS011;40337;52.978;6.310;2022-09-12T05:03:38;28.25;;;25.17;;
54428;SDS011;40337;52.978;6.310;2022-09-12T05:06:06;28.98;;;25.88;;
54428;SDS011;40337;52.978;6.310;2022-09-12T05:08:33;29.50;;;26.30;;
54428;SDS011;40337;52.978;6.310;2022-09-12T05:11:03;28.60;;;25.48;;
54428;SDS011;40337;52.978;6.310;2022-09-12T05:13:30;30.45;;;25.73;;
54428;SDS011;40337;52.978;6.310;2022-09-12T05:15:56;29.45;;;26.25;;
54428;SDS011;40337;52.978;6.310;2022-09-12T05:18:23;28.58;;;25.48;;
54428;SDS011;40337;52.978;6.310;2022-09-12T05:20:50;28.88;;;25.75;;
54428;SDS011;40337;52.978;6.310;2022-09-12T05:23:16;28.48;;;24.52;;
54428;SDS011;40337;52.978;6.310;2022-09-12T05:25:48;29.52;;;26.10;;
54428;SDS011;40337;52.978;6.310;2022-09-12T05:28:19;28.08;;;25.13;;
54428;SDS011;40337;52.978;6.310;2022-09-12T05:30:45;29.50;;;25.92;;
54428;SDS011;40337;52.978;6.310;2022-09-12T05:33:11;26.92;;;24.05;;
54428;SDS011;40337;52.978;6.310;2022-09-12T05:35:38;29.13;;;25.98;;
54428;SDS011;40337;52.978;6.310;2022-09-12T05:38:04;30.17;;;26.73;;
54428;SDS011;40337;52.978;6.310;2022-09-12T05:40:31;31.05;;;25.60;;
54428;SDS011;40337;52.978;6.310;2022-09-12T05:42:57;29.65;;;26.45;;
54428;SDS011;40337;52.978;6.310;2022-09-12T05:45:23;29.48;;;26.02;;
54428;SDS011;40337;52.978;6.310;2022-09-12T05:47:51;30.95;;;26.73;;
54428;SDS011;40337;52.978;6.310;2022-09-12T05:50:18;33.30;;;29.17;;
54428;SDS011;40337;52.978;6.310;2022-09-12T05:52:44;34.75;;;28.52;;
54428;SDS011;40337;52.978;6.310;2022-09-12T05:55:10;33.88;;;28.20;;
54428;SDS011;40337;52.978;6.310;2022-09-12T05:57:35;35.28;;;28.85;;
54428;SDS011;40337;52.978;6.310;2022-09-12T06:00:02;30.25;;;25.73;;
54428;SDS011;40337;52.978;6.310;2022-09-12T06:02:29;31.65;;;26.67;;
54428;SDS011;40337;52.978;6.310;2022-09-12T06:04:55;31.10;;;25.88;;
54428;SDS011;40337;52.978;6.310;2022-09-12T06:07:20;33.83;;;28.15;;
54428;SDS011;40337;52.978;6.310;2022-09-12T06:09:46;37.67;;;30.17;;
54428;SDS011;40337;52.978;6.310;2022-09-12T06:12:12;35.85;;;29.00;;
54428;SDS011;40337;52.978;6.310;2022-09-12T06:14:37;38.17;;;31.13;;
54428;SDS011;40337;52.978;6.310;2022-09-12T06:17:03;38.95;;;31.55;;
54428;SDS011;40337;52.978;6.310;2022-09-12T06:19:29;40.67;;;31.25;;
54428;SDS011;40337;52.978;6.310;2022-09-12T06:21:54;39.25;;;30.58;;
54428;SDS011;40337;52.978;6.310;2022-09-12T06:24:20;35.63;;;29.02;;
54428;SDS011;40337;52.978;6.310;2022-09-12T06:26:47;39.63;;;31.92;;
54428;SDS011;40337;52.978;6.310;2022-09-12T06:29:14;42.85;;;33.65;;
54428;SDS011;40337;52.978;6.310;2022-09-12T06:31:40;39.83;;;32.33;;
54428;SDS011;40337;52.978;6.310;2022-09-12T06:34:07;38.70;;;30.00;;
54428;SDS011;40337;52.978;6.310;2022-09-12T06:36:38;41.95;;;31.92;;
54428;SDS011;40337;52.978;6.310;2022-09-12T06:39:07;40.13;;;32.15;;
54428;SDS011;40337;52.978;6.310;2022-09-12T06:41:35;42.30;;;32.20;;
54428;SDS011;40337;52.978;6.310;2022-09-12T06:44:01;40.40;;;31.90;;
54428;SDS011;40337;52.978;6.310;2022-09-12T06:46:27;37.85;;;29.95;;
54428;SDS011;40337;52.978;6.310;2022-09-12T06:48:56;44.72;;;31.88;;
54428;SDS011;40337;52.978;6.310;2022-09-12T06:51:23;44.65;;;34.53;;
54428;SDS011;40337;52.978;6.310;2022-09-12T06:53:50;42.40;;;32.42;;
54428;SDS011;40337;52.978;6.310;2022-09-12T06:56:20;39.60;;;30.67;;
54428;SDS011;40337;52.978;6.310;2022-09-12T06:58:48;43.05;;;32.65;;
54428;SDS011;40337;52.978;6.310;2022-09-12T07:03:50;48.47;;;32.88;;
54428;SDS011;40337;52.978;6.310;2022-09-12T07:06:18;44.20;;;33.05;;
54428;SDS011;40337;52.978;6.310;2022-09-12T07:08:45;45.58;;;34.90;;
54428;SDS011;40337;52.978;6.310;2022-09-12T07:11:13;46.58;;;34.33;;
54428;SDS011;40337;52.978;6.310;2022-09-12T07:13:41;47.30;;;35.13;;
54428;SDS011;40337;52.978;6.310;2022-09-12T07:16:08;46.20;;;35.60;;
54428;SDS011;40337;52.978;6.310;2022-09-12T07:18:35;47.90;;;35.15;;
54428;SDS011;40337;52.978;6.310;2022-09-12T07:21:09;45.85;;;35.03;;
54428;SDS011;40337;52.978;6.310;2022-09-12T07:23:36;46.22;;;33.78;;
54428;SDS011;40337;52.978;6.310;2022-09-12T07:26:02;51.97;;;37.00;;
54428;SDS011;40337;52.978;6.310;2022-09-12T07:28:29;51.03;;;36.60;;
54428;SDS011;40337;52.978;6.310;2022-09-12T07:30:56;46.78;;;34.90;;
54428;SDS011;40337;52.978;6.310;2022-09-12T07:33:23;50.42;;;36.13;;
54428;SDS011;40337;52.978;6.310;2022-09-12T07:35:51;43.33;;;32.45;;
54428;SDS011;40337;52.978;6.310;2022-09-12T07:38:18;50.05;;;36.15;;
54428;SDS011;40337;52.978;6.310;2022-09-12T07:40:44;48.47;;;36.45;;
54428;SDS011;40337;52.978;6.310;2022-09-12T07:43:10;50.55;;;36.05;;
54428;SDS011;40337;52.978;6.310;2022-09-12T07:45:36;53.22;;;37.42;;
54428;SDS011;40337;52.978;6.310;2022-09-12T07:48:02;56.47;;;39.90;;
54428;SDS011;40337;52.978;6.310;2022-09-12T07:50:28;54.97;;;39.28;;
54428;SDS011;40337;52.978;6.310;2022-09-12T07:52:53;52.92;;;40.25;;
54428;SDS011;40337;52.978;6.310;2022-09-12T07:55:19;52.15;;;39.97;;
54428;SDS011;40337;52.978;6.310;2022-09-12T07:57:49;50.13;;;38.22;;
54428;SDS011;40337;52.978;6.310;2022-09-12T08:00:15;51.60;;;38.50;;
54428;SDS011;40337;52.978;6.310;2022-09-12T08:02:41;53.17;;;40.03;;
54428;SDS011;40337;52.978;6.310;2022-09-12T08:05:07;54.58;;;40.35;;
54428;SDS011;40337;52.978;6.310;2022-09-12T08:07:33;52.05;;;39.55;;
54428;SDS011;40337;52.978;6.310;2022-09-12T08:09:59;46.95;;;37.25;;
54428;SDS011;40337;52.978;6.310;2022-09-12T08:12:28;49.67;;;39.63;;
54428;SDS011;40337;52.978;6.310;2022-09-12T08:14:54;51.92;;;39.28;;
54428;SDS011;40337;52.978;6.310;2022-09-12T08:17:19;50.75;;;39.22;;
54428;SDS011;40337;52.978;6.310;2022-09-12T08:19:45;58.03;;;39.65;;
54428;SDS011;40337;52.978;6.310;2022-09-12T08:22:11;49.83;;;38.53;;
54428;SDS011;40337;52.978;6.310;2022-09-12T08:24:37;50.80;;;38.88;;
54428;SDS011;40337;52.978;6.310;2022-09-12T08:27:06;53.53;;;40.63;;
54428;SDS011;40337;52.978;6.310;2022-09-12T08:29:32;52.35;;;41.15;;
54428;SDS011;40337;52.978;6.310;2022-09-12T08:31:57;56.35;;;40.58;;
54428;SDS011;40337;52.978;6.310;2022-09-12T08:34:23;50.03;;;39.80;;
54428;SDS011;40337;52.978;6.310;2022-09-12T08:36:50;52.13;;;39.45;;
54428;SDS011;40337;52.978;6.310;2022-09-12T08:39:18;52.75;;;39.45;;
54428;SDS011;40337;52.978;6.310;2022-09-12T08:41:47;51.75;;;39.63;;
54428;SDS011;40337;52.978;6.310;2022-09-12T08:49:14;50.10;;;38.35;;
54428;SDS011;40337;52.978;6.310;2022-09-12T08:51:55;52.08;;;40.53;;
54428;SDS011;40337;52.978;6.310;2022-09-12T08:54:24;46.88;;;37.65;;
54428;SDS011;40337;52.978;6.310;2022-09-12T08:56:54;47.13;;;36.50;;
54428;SDS011;40337;52.978;6.310;2022-09-12T08:59:25;46.60;;;37.20;;
54428;SDS011;40337;52.978;6.310;2022-09-12T09:01:52;48.85;;;37.83;;
54428;SDS011;40337;52.978;6.310;2022-09-12T09:04:42;47.70;;;36.70;;
54428;SDS011;40337;52.978;6.310;2022-09-12T09:18:35;44.95;;;33.78;;
54428;SDS011;40337;52.978;6.310;2022-09-12T09:21:18;44.78;;;33.78;;
54428;SDS011;40337;52.978;6.310;2022-09-12T09:23:56;43.50;;;33.40;;
54428;SDS011;40337;52.978;6.310;2022-09-12T09:29:29;43.88;;;32.40;;
54428;SDS011;40337;52.978;6.310;2022-09-12T09:32:02;40.45;;;31.67;;
54428;SDS011;40337;52.978;6.310;2022-09-12T09:34:34;45.97;;;35.70;;
54428;SDS011;40337;52.978;6.310;2022-09-12T09:37:17;42.38;;;32.70;;
54428;SDS011;40337;52.978;6.310;2022-09-12T09:39:48;44.22;;;33.30;;
54428;SDS011;40337;52.978;6.310;2022-09-12T09:45:29;42.55;;;32.50;;
54428;SDS011;40337;52.978;6.310;2022-09-12T09:47:59;37.42;;;29.23;;
54428;SDS011;40337;52.978;6.310;2022-09-12T09:50:47;39.30;;;30.60;;
54428;SDS011;40337;52.978;6.310;2022-09-12T09:54:00;34.72;;;27.88;;
54428;SDS011;40337;52.978;6.310;2022-09-12T09:58:53;31.38;;;25.05;;
54428;SDS011;40337;52.978;6.310;2022-09-12T10:01:19;30.02;;;23.65;;
54428;SDS011;40337;52.978;6.310;2022-09-12T10:03:52;29.40;;;23.45;;
54428;SDS011;40337;52.978;6.310;2022-09-12T10:08:44;22.27;;;19.00;;
54428;SDS011;40337;52.978;6.310;2022-09-12T10:16:21;19.58;;;15.50;;
54428;SDS011;40337;52.978;6.310;2022-09-12T10:18:54;19.50;;;16.92;;
54428;SDS011;40337;52.978;6.310;2022-09-12T10:24:26;19.67;;;16.65;;
54428;SDS011;40337;52.978;6.310;2022-09-12T10:29:33;20.00;;;17.48;;
54428;SDS011;40337;52.978;6.310;2022-09-12T10:32:10;21.63;;;18.42;;
54428;SDS011;40337;52.978;6.310;2022-09-12T10:37:54;18.48;;;16.48;;
54428;SDS011;40337;52.978;6.310;2022-09-12T10:39:56;16.52;;;14.52;;
54428;SDS011;40337;52.978;6.310;2022-09-12T10:45:20;18.13;;;16.17;;
54428;SDS011;40337;52.978;6.310;2022-09-12T10:47:57;19.77;;;16.27;;
54428;SDS011;40337;52.978;6.310;2022-09-12T10:50:29;17.85;;;15.95;;
54428;SDS011;40337;52.978;6.310;2022-09-12T10:56:00;17.08;;;14.25;;
54428;SDS011;40337;52.978;6.310;2022-09-12T11:01:48;15.50;;;13.80;;
54428;SDS011;40337;52.978;6.310;2022-09-12T11:04:56;15.43;;;13.50;;
54428;SDS011;40337;52.978;6.310;2022-09-12T11:07:28;17.98;;;14.32;;
54428;SDS011;40337;52.978;6.310;2022-09-12T11:10:16;17.48;;;13.75;;
54428;SDS011;40337;52.978;6.310;2022-09-12T11:13:25;16.58;;;14.77;;
54428;SDS011;40337;52.978;6.310;2022-09-12T11:24:36;15.25;;;12.48;;
54428;SDS011;40337;52.978;6.310;2022-09-12T11:27:38;13.57;;;10.38;;
54428;SDS011;40337;52.978;6.310;2022-09-12T11:30:16;11.27;;;9.00;;
54428;SDS011;40337;52.978;6.310;2022-09-12T11:35:24;12.27;;;9.40;;
54428;SDS011;40337;52.978;6.310;2022-09-12T11:37:57;12.85;;;9.30;;
54428;SDS011;40337;52.978;6.310;2022-09-12T11:40:43;10.20;;;8.15;;
54428;SDS011;40337;52.978;6.310;2022-09-12T11:45:58;12.95;;;10.38;;
54428;SDS011;40337;52.978;6.310;2022-09-12T11:48:44;11.13;;;9.90;;
54428;SDS011;40337;52.978;6.310;2022-09-12T11:51:20;12.38;;;9.95;;
54428;SDS011;40337;52.978;6.310;2022-09-12T11:53:57;11.35;;;8.30;;
54428;SDS011;40337;52.978;6.310;2022-09-12T11:57:09;10.20;;;8.43;;
54428;SDS011;40337;52.978;6.310;2022-09-12T11:59:49;10.73;;;8.23;;
54428;SDS011;40337;52.978;6.310;2022-09-12T12:02:27;9.02;;;6.32;;
54428;SDS011;40337;52.978;6.310;2022-09-12T12:07:58;9.95;;;8.10;;
54428;SDS011;40337;52.978;6.310;2022-09-12T12:10:27;10.60;;;9.10;;
54428;SDS011;40337;52.978;6.310;2022-09-12T12:12:59;11.23;;;9.18;;
54428;SDS011;40337;52.978;6.310;2022-09-12T12:15:26;11.30;;;9.23;;
54428;SDS011;40337;52.978;6.310;2022-09-12T12:20:42;12.88;;;8.73;;
54428;SDS011;40337;52.978;6.310;2022-09-12T12:23:30;10.63;;;7.57;;
54428;SDS011;40337;52.978;6.310;2022-09-12T12:25:56;10.57;;;8.77;;
54428;SDS011;40337;52.978;6.310;2022-09-12T12:31:08;11.90;;;9.55;;
54428;SDS011;40337;52.978;6.310;2022-09-12T12:36:07;10.00;;;8.52;;
54428;SDS011;40337;52.978;6.310;2022-09-12T12:38:36;10.73;;;8.60;;
54428;SDS011;40337;52.978;6.310;2022-09-12T12:43:40;11.68;;;9.70;;
54428;SDS011;40337;52.978;6.310;2022-09-12T12:46:13;11.82;;;9.15;;
54428;SDS011;40337;52.978;6.310;2022-09-12T12:51:36;9.55;;;7.85;;
54428;SDS011;40337;52.978;6.310;2022-09-12T12:54:25;9.02;;;7.10;;
54428;SDS011;40337;52.978;6.310;2022-09-12T12:56:59;11.80;;;8.02;;
54428;SDS011;40337;52.978;6.310;2022-09-12T12:59:50;10.60;;;7.65;;
54428;SDS011;40337;52.978;6.310;2022-09-12T13:02:23;11.93;;;7.80;;
54428;SDS011;40337;52.978;6.310;2022-09-12T13:04:55;9.70;;;7.70;;
54428;SDS011;40337;52.978;6.310;2022-09-12T13:07:28;9.57;;;8.40;;
54428;SDS011;40337;52.978;6.310;2022-09-12T13:10:00;10.45;;;8.85;;
54428;SDS011;40337;52.978;6.310;2022-09-12T13:12:37;10.85;;;8.73;;
54428;SDS011;40337;52.978;6.310;2022-09-12T13:18:05;10.02;;;7.80;;
54428;SDS011;40337;52.978;6.310;2022-09-12T13:20:37;11.73;;;9.27;;
54428;SDS011;40337;52.978;6.310;2022-09-12T13:23:26;9.45;;;8.38;;
54428;SDS011;40337;52.978;6.310;2022-09-12T13:25:54;10.75;;;7.47;;
54428;SDS011;40337;52.978;6.310;2022-09-12T13:28:25;8.82;;;7.38;;
54428;SDS011;40337;52.978;6.310;2022-09-12T13:30:56;10.27;;;6.70;;
54428;SDS011;40337;52.978;6.310;2022-09-12T13:34:07;8.60;;;6.80;;
54428;SDS011;40337;52.978;6.310;2022-09-12T13:41:53;8.57;;;6.90;;
54428;SDS011;40337;52.978;6.310;2022-09-12T13:44:27;7.32;;;6.13;;
54428;SDS011;40337;52.978;6.310;2022-09-12T13:46:56;8.85;;;6.45;;
54428;SDS011;40337;52.978;6.310;2022-09-12T13:49:37;8.93;;;8.00;;
54428;SDS011;40337;52.978;6.310;2022-09-12T13:52:05;10.18;;;7.75;;
54428;SDS011;40337;52.978;6.310;2022-09-12T13:54:34;7.22;;;5.60;;
54428;SDS011;40337;52.978;6.310;2022-09-12T13:57:02;11.18;;;9.90;;
54428;SDS011;40337;52.978;6.310;2022-09-12T13:59:36;10.73;;;8.55;;
54428;SDS011;40337;52.978;6.310;2022-09-12T14:02:15;8.98;;;7.50;;
54428;SDS011;40337;52.978;6.310;2022-09-12T14:04:47;8.35;;;5.70;;
54428;SDS011;40337;52.978;6.310;2022-09-12T14:07:52;8.45;;;6.65;;
54428;SDS011;40337;52.978;6.310;2022-09-12T14:10:23;8.23;;;7.20;;
54428;SDS011;40337;52.978;6.310;2022-09-12T14:12:52;8.23;;;6.88;;
54428;SDS011;40337;52.978;6.310;2022-09-12T14:15:21;9.05;;;7.55;;
54428;SDS011;40337;52.978;6.310;2022-09-12T14:17:52;8.35;;;7.55;;
54428;SDS011;40337;52.978;6.310;2022-09-12T14:20:20;9.93;;;6.93;;
54428;SDS011;40337;52.978;6.310;2022-09-12T14:22:48;8.30;;;6.68;;
54428;SDS011;40337;52.978;6.310;2022-09-12T14:25:15;7.57;;;6.78;;
54428;SDS011;40337;52.978;6.310;2022-09-12T14:27:47;7.47;;;6.45;;
54428;SDS011;40337;52.978;6.310;2022-09-12T14:30:21;7.57;;;5.88;;
54428;SDS011;40337;52.978;6.310;2022-09-12T14:35:38;7.65;;;6.18;;
54428;SDS011;40337;52.978;6.310;2022-09-12T14:38:19;8.20;;;6.90;;
54428;SDS011;40337;52.978;6.310;2022-09-12T14:40:57;8.85;;;7.40;;
54428;SDS011;40337;52.978;6.310;2022-09-12T14:43:29;8.38;;;6.90;;
54428;SDS011;40337;52.978;6.310;2022-09-12T14:46:00;8.95;;;7.60;;
54428;SDS011;40337;52.978;6.310;2022-09-12T14:48:29;9.95;;;8.65;;
54428;SDS011;40337;52.978;6.310;2022-09-12T14:50:58;9.18;;;8.20;;
54428;SDS011;40337;52.978;6.310;2022-09-12T14:53:32;9.75;;;8.45;;
54428;SDS011;40337;52.978;6.310;2022-09-12T14:58:35;8.85;;;7.95;;
54428;SDS011;40337;52.978;6.310;2022-09-12T15:03:32;9.50;;;8.52;;
54428;SDS011;40337;52.978;6.310;2022-09-12T15:06:00;9.43;;;8.43;;
54428;SDS011;40337;52.978;6.310;2022-09-12T15:08:27;9.05;;;8.02;;
54428;SDS011;40337;52.978;6.310;2022-09-12T15:10:54;7.47;;;6.03;;
54428;SDS011;40337;52.978;6.310;2022-09-12T15:13:20;7.63;;;6.28;;
54428;SDS011;40337;52.978;6.310;2022-09-12T15:15:48;9.82;;;6.80;;
54428;SDS011;40337;52.978;6.310;2022-09-12T15:18:19;6.97;;;5.53;;
54428;SDS011;40337;52.978;6.310;2022-09-12T15:20:46;6.90;;;6.05;;
54428;SDS011;40337;52.978;6.310;2022-09-12T15:23:17;6.55;;;5.13;;
54428;SDS011;40337;52.978;6.310;2022-09-12T15:25:55;6.57;;;5.40;;
54428;SDS011;40337;52.978;6.310;2022-09-12T15:28:22;6.45;;;4.80;;
54428;SDS011;40337;52.978;6.310;2022-09-12T15:30:48;5.32;;;4.50;;
54428;SDS011;40337;52.978;6.310;2022-09-12T15:33:16;5.80;;;4.40;;
54428;SDS011;40337;52.978;6.310;2022-09-12T15:35:43;6.53;;;4.70;;
54428;SDS011;40337;52.978;6.310;2022-09-12T15:38:09;6.45;;;4.30;;
54428;SDS011;40337;52.978;6.310;2022-09-12T15:40:35;6.18;;;4.65;;
54428;SDS011;40337;52.978;6.310;2022-09-12T15:43:01;6.50;;;4.90;;
54428;SDS011;40337;52.978;6.310;2022-09-12T15:45:28;5.10;;;4.60;;
54428;SDS011;40337;52.978;6.310;2022-09-12T15:47:56;6.03;;;4.45;;
54428;SDS011;40337;52.978;6.310;2022-09-12T15:50:22;5.03;;;3.80;;
54428;SDS011;40337;52.978;6.310;2022-09-12T15:52:48;5.38;;;4.38;;
54428;SDS011;40337;52.978;6.310;2022-09-12T15:55:20;5.75;;;4.53;;
54428;SDS011;40337;52.978;6.310;2022-09-12T15:57:48;5.97;;;4.38;;
54428;SDS011;40337;52.978;6.310;2022-09-12T16:00:15;5.78;;;3.95;;
54428;SDS011;40337;52.978;6.310;2022-09-12T16:02:41;5.20;;;4.13;;
54428;SDS011;40337;52.978;6.310;2022-09-12T16:05:10;6.00;;;4.43;;
54428;SDS011;40337;52.978;6.310;2022-09-12T16:07:41;5.28;;;3.60;;
54428;SDS011;40337;52.978;6.310;2022-09-12T16:10:12;4.28;;;3.78;;
54428;SDS011;40337;52.978;6.310;2022-09-12T16:12:39;6.45;;;4.15;;
54428;SDS011;40337;52.978;6.310;2022-09-12T16:15:05;7.00;;;4.20;;
54428;SDS011;40337;52.978;6.310;2022-09-12T16:17:31;4.82;;;3.90;;
54428;SDS011;40337;52.978;6.310;2022-09-12T16:19:56;5.47;;;3.78;;
54428;SDS011;40337;52.978;6.310;2022-09-12T16:22:22;4.10;;;3.47;;
54428;SDS011;40337;52.978;6.310;2022-09-12T16:24:48;4.13;;;3.47;;
54428;SDS011;40337;52.978;6.310;2022-09-12T16:27:13;6.75;;;3.90;;
54428;SDS011;40337;52.978;6.310;2022-09-12T16:29:39;6.25;;;4.15;;
54428;SDS011;40337;52.978;6.310;2022-09-12T16:32:05;4.82;;;4.10;;
54428;SDS011;40337;52.978;6.310;2022-09-12T16:34:30;4.75;;;3.78;;
54428;SDS011;40337;52.978;6.310;2022-09-12T16:36:56;5.10;;;3.80;;
54428;SDS011;40337;52.978;6.310;2022-09-12T16:39:21;5.50;;;4.40;;
54428;SDS011;40337;52.978;6.310;2022-09-12T16:41:47;5.07;;;4.28;;
54428;SDS011;40337;52.978;6.310;2022-09-12T16:44:13;5.65;;;3.90;;
54428;SDS011;40337;52.978;6.310;2022-09-12T16:46:38;5.47;;;4.00;;
54428;SDS011;40337;52.978;6.310;2022-09-12T16:49:04;5.22;;;4.03;;
54428;SDS011;40337;52.978;6.310;2022-09-12T16:51:31;5.97;;;3.75;;
54428;SDS011;40337;52.978;6.310;2022-09-12T16:53:59;5.22;;;3.85;;
54428;SDS011;40337;52.978;6.310;2022-09-12T16:56:25;5.53;;;4.25;;
54428;SDS011;40337;52.978;6.310;2022-09-12T16:58:51;5.05;;;4.10;;
54428;SDS011;40337;52.978;6.310;2022-09-12T17:01:21;5.60;;;3.97;;
54428;SDS011;40337;52.978;6.310;2022-09-12T17:03:52;6.90;;;4.07;;
54428;SDS011;40337;52.978;6.310;2022-09-12T17:06:19;5.07;;;3.83;;
54428;SDS011;40337;52.978;6.310;2022-09-12T17:08:46;5.07;;;4.00;;
54428;SDS011;40337;52.978;6.310;2022-09-12T17:11:15;6.45;;;4.10;;
54428;SDS011;40337;52.978;6.310;2022-09-12T17:13:41;5.18;;;4.20;;
54428;SDS011;40337;52.978;6.310;2022-09-12T17:16:10;5.30;;;4.03;;
54428;SDS011;40337;52.978;6.310;2022-09-12T17:18:39;5.60;;;3.90;;
54428;SDS011;40337;52.978;6.310;2022-09-12T17:21:05;6.20;;;3.53;;
54428;SDS011;40337;52.978;6.310;2022-09-12T17:23:31;6.05;;;4.10;;
54428;SDS011;40337;52.978;6.310;2022-09-12T17:25:57;7.28;;;4.28;;